sensor_id;sensor_type;location;lat;lon;timestamp;P1;durP1;ratioP1;P2;durP2;ratioP2
77326;SDS011;66399;52.322;20.980;2023-02-13T00:03:40;15.30;;;6.10;;
77326;SDS011;66399;52.322;20.980;2023-02-13T00:07:45;12.60;;;4.80;;
77326;SDS011;66399;52.322;20.980;2023-02-13T00:11:50;12.60;;;5.40;;
77326;SDS011;66399;52.322;20.980;2023-02-13T00:15:57;9.70;;;4.40;;
77326;SDS011;66399;52.322;20.980;2023-02-13T00:20:03;18.70;;;5.60;;
77326;SDS011;66399;52.322;20.980;2023-02-13T00:28:12;13.00;;;5.80;;
77326;SDS011;66399;52.322;20.980;2023-02-13T00:32:17;11.60;;;5.10;;
77326;SDS011;66399;52.322;20.980;2023-02-13T00:36:23;10.30;;;4.10;;
77326;SDS011;66399;52.322;20.980;2023-02-13T00:40:28;9.80;;;4.90;;
77326;SDS011;66399;52.322;20.980;2023-02-13T00:44:34;13.50;;;4.50;;
77326;SDS011;66399;52.322;20.980;2023-02-13T00:48:39;14.30;;;4.90;;
77326;SDS011;66399;52.322;20.980;2023-02-13T00:52:45;13.30;;;5.40;;
77326;SDS011;66399;52.322;20.980;2023-02-13T00:56:50;13.70;;;5.00;;
77326;SDS011;66399;52.322;20.980;2023-02-13T01:00:55;14.10;;;5.10;;
77326;SDS011;66399;52.322;20.980;2023-02-13T01:05:02;13.20;;;4.80;;
77326;SDS011;66399;52.322;20.980;2023-02-13T01:13:11;10.70;;;4.70;;
77326;SDS011;66399;52.322;20.980;2023-02-13T01:17:17;13.40;;;4.90;;
77326;SDS011;66399;52.322;20.980;2023-02-13T01:21:22;15.70;;;5.20;;
77326;SDS011;66399;52.322;20.980;2023-02-13T01:25:28;10.20;;;4.60;;
77326;SDS011;66399;52.322;20.980;2023-02-13T01:29:34;12.70;;;4.60;;
77326;SDS011;66399;52.322;20.980;2023-02-13T01:33:40;12.70;;;5.60;;
77326;SDS011;66399;52.322;20.980;2023-02-13T01:37:45;10.80;;;4.40;;
77326;SDS011;66399;52.322;20.980;2023-02-13T01:41:50;11.70;;;4.60;;
77326;SDS011;66399;52.322;20.980;2023-02-13T01:45:55;9.80;;;4.40;;
77326;SDS011;66399;52.322;20.980;2023-02-13T01:50:04;11.30;;;4.60;;
77326;SDS011;66399;52.322;20.980;2023-02-13T01:54:11;9.70;;;4.30;;
77326;SDS011;66399;52.322;20.980;2023-02-13T01:58:19;9.50;;;4.50;;
77326;SDS011;66399;52.322;20.980;2023-02-13T02:02:26;11.60;;;4.50;;
77326;SDS011;66399;52.322;20.980;2023-02-13T02:10:36;4.90;;;2.20;;
77326;SDS011;66399;52.322;20.980;2023-02-13T02:14:42;9.50;;;4.20;;
77326;SDS011;66399;52.322;20.980;2023-02-13T02:18:47;9.40;;;3.90;;
77326;SDS011;66399;52.322;20.980;2023-02-13T02:27:27;9.60;;;3.50;;
77326;SDS011;66399;52.322;20.980;2023-02-13T02:31:58;10.70;;;3.80;;
77326;SDS011;66399;52.322;20.980;2023-02-13T02:36:10;6.30;;;3.20;;
77326;SDS011;66399;52.322;20.980;2023-02-13T02:40:22;7.50;;;2.90;;
77326;SDS011;66399;52.322;20.980;2023-02-13T02:44:31;6.80;;;2.80;;
77326;SDS011;66399;52.322;20.980;2023-02-13T02:48:39;10.30;;;3.70;;
77326;SDS011;66399;52.322;20.980;2023-02-13T02:53:07;10.20;;;3.20;;
77326;SDS011;66399;52.322;20.980;2023-02-13T02:57:14;7.90;;;4.10;;
77326;SDS011;66399;52.322;20.980;2023-02-13T03:01:20;9.40;;;3.30;;
77326;SDS011;66399;52.322;20.980;2023-02-13T03:10:07;10.10;;;3.90;;
77326;SDS011;66399;52.322;20.980;2023-02-13T03:14:31;10.30;;;3.80;;
77326;SDS011;66399;52.322;20.980;2023-02-13T03:18:37;9.00;;;3.80;;
77326;SDS011;66399;52.322;20.980;2023-02-13T03:23:05;9.40;;;4.00;;
77326;SDS011;66399;52.322;20.980;2023-02-13T03:27:13;6.10;;;2.60;;
77326;SDS011;66399;52.322;20.980;2023-02-13T03:31:27;9.30;;;3.70;;
77326;SDS011;66399;52.322;20.980;2023-02-13T03:35:39;9.90;;;4.70;;
77326;SDS011;66399;52.322;20.980;2023-02-13T03:40:07;8.70;;;4.00;;
77326;SDS011;66399;52.322;20.980;2023-02-13T03:44:14;11.70;;;4.70;;
77326;SDS011;66399;52.322;20.980;2023-02-13T03:48:23;7.50;;;3.50;;
77326;SDS011;66399;52.322;20.980;2023-02-13T03:52:47;11.00;;;4.50;;
77326;SDS011;66399;52.322;20.980;2023-02-13T03:56:53;9.40;;;3.90;;
77326;SDS011;66399;52.322;20.980;2023-02-13T04:01:17;10.20;;;3.90;;
77326;SDS011;66399;52.322;20.980;2023-02-13T04:05:23;8.70;;;3.70;;
77326;SDS011;66399;52.322;20.980;2023-02-13T04:09:29;10.80;;;3.80;;
77326;SDS011;66399;52.322;20.980;2023-02-13T04:13:37;8.50;;;3.90;;
77326;SDS011;66399;52.322;20.980;2023-02-13T04:17:47;6.70;;;3.30;;
77326;SDS011;66399;52.322;20.980;2023-02-13T04:21:55;10.40;;;4.00;;
77326;SDS011;66399;52.322;20.980;2023-02-13T04:26:02;8.90;;;3.60;;
77326;SDS011;66399;52.322;20.980;2023-02-13T04:30:11;8.30;;;4.00;;
77326;SDS011;66399;52.322;20.980;2023-02-13T04:34:16;10.30;;;4.60;;
77326;SDS011;66399;52.322;20.980;2023-02-13T04:38:21;9.40;;;4.10;;
77326;SDS011;66399;52.322;20.980;2023-02-13T04:42:27;12.00;;;4.20;;
77326;SDS011;66399;52.322;20.980;2023-02-13T04:46:32;11.00;;;4.10;;
77326;SDS011;66399;52.322;20.980;2023-02-13T04:50:37;10.40;;;4.10;;
77326;SDS011;66399;52.322;20.980;2023-02-13T04:54:43;11.20;;;4.00;;
77326;SDS011;66399;52.322;20.980;2023-02-13T04:58:48;10.40;;;4.50;;
77326;SDS011;66399;52.322;20.980;2023-02-13T05:02:54;9.80;;;4.00;;
77326;SDS011;66399;52.322;20.980;2023-02-13T05:07:04;7.30;;;3.30;;
77326;SDS011;66399;52.322;20.980;2023-02-13T05:11:10;8.30;;;4.20;;
77326;SDS011;66399;52.322;20.980;2023-02-13T05:15:15;9.20;;;3.60;;
77326;SDS011;66399;52.322;20.980;2023-02-13T05:19:21;9.50;;;4.10;;
77326;SDS011;66399;52.322;20.980;2023-02-13T05:23:26;7.80;;;3.80;;
77326;SDS011;66399;52.322;20.980;2023-02-13T05:27:32;12.20;;;5.20;;
77326;SDS011;66399;52.322;20.980;2023-02-13T05:31:37;12.80;;;5.10;;
77326;SDS011;66399;52.322;20.980;2023-02-13T05:35:43;8.20;;;3.60;;
77326;SDS011;66399;52.322;20.980;2023-02-13T05:39:48;11.20;;;4.20;;
77326;SDS011;66399;52.322;20.980;2023-02-13T05:43:53;10.00;;;4.30;;
77326;SDS011;66399;52.322;20.980;2023-02-13T05:47:58;8.00;;;3.50;;
77326;SDS011;66399;52.322;20.980;2023-02-13T05:56:08;8.50;;;4.10;;
77326;SDS011;66399;52.322;20.980;2023-02-13T06:00:15;9.60;;;3.90;;
77326;SDS011;66399;52.322;20.980;2023-02-13T06:04:20;9.30;;;3.80;;
77326;SDS011;66399;52.322;20.980;2023-02-13T06:08:25;9.40;;;4.00;;
77326;SDS011;66399;52.322;20.980;2023-02-13T06:12:31;8.10;;;4.10;;
77326;SDS011;66399;52.322;20.980;2023-02-13T06:16:36;11.50;;;3.90;;
77326;SDS011;66399;52.322;20.980;2023-02-13T06:20:41;9.60;;;4.20;;
77326;SDS011;66399;52.322;20.980;2023-02-13T06:24:47;8.80;;;3.80;;
77326;SDS011;66399;52.322;20.980;2023-02-13T06:28:52;11.30;;;4.30;;
77326;SDS011;66399;52.322;20.980;2023-02-13T06:32:57;11.50;;;4.00;;
77326;SDS011;66399;52.322;20.980;2023-02-13T06:37:03;5.30;;;2.90;;
77326;SDS011;66399;52.322;20.980;2023-02-13T06:41:08;10.40;;;4.20;;
77326;SDS011;66399;52.322;20.980;2023-02-13T06:45:14;7.40;;;3.60;;
77326;SDS011;66399;52.322;20.980;2023-02-13T06:49:19;9.40;;;4.20;;
77326;SDS011;66399;52.322;20.980;2023-02-13T06:53:25;10.60;;;4.20;;
77326;SDS011;66399;52.322;20.980;2023-02-13T06:57:30;8.00;;;4.00;;
77326;SDS011;66399;52.322;20.980;2023-02-13T07:01:36;8.60;;;3.70;;
77326;SDS011;66399;52.322;20.980;2023-02-13T07:05:42;10.90;;;4.00;;
77326;SDS011;66399;52.322;20.980;2023-02-13T07:09:47;9.50;;;3.90;;
77326;SDS011;66399;52.322;20.980;2023-02-13T07:13:53;7.00;;;3.20;;
77326;SDS011;66399;52.322;20.980;2023-02-13T07:17:58;8.20;;;3.90;;
77326;SDS011;66399;52.322;20.980;2023-02-13T07:26:08;8.00;;;3.60;;
77326;SDS011;66399;52.322;20.980;2023-02-13T07:30:14;6.60;;;3.10;;
77326;SDS011;66399;52.322;20.980;2023-02-13T07:38:23;7.80;;;3.80;;
77326;SDS011;66399;52.322;20.980;2023-02-13T07:42:29;7.90;;;3.50;;
77326;SDS011;66399;52.322;20.980;2023-02-13T07:46:36;7.30;;;3.50;;
77326;SDS011;66399;52.322;20.980;2023-02-13T07:50:41;9.60;;;3.40;;
77326;SDS011;66399;52.322;20.980;2023-02-13T07:54:47;6.80;;;3.20;;
77326;SDS011;66399;52.322;20.980;2023-02-13T07:58:52;6.90;;;2.40;;
77326;SDS011;66399;52.322;20.980;2023-02-13T08:02:59;4.50;;;2.40;;
77326;SDS011;66399;52.322;20.980;2023-02-13T08:07:04;5.30;;;3.00;;
77326;SDS011;66399;52.322;20.980;2023-02-13T08:11:16;6.30;;;2.70;;
77326;SDS011;66399;52.322;20.980;2023-02-13T08:15:41;7.70;;;2.70;;
77326;SDS011;66399;52.322;20.980;2023-02-13T08:19:48;5.40;;;2.60;;
77326;SDS011;66399;52.322;20.980;2023-02-13T08:23:53;8.40;;;3.00;;
77326;SDS011;66399;52.322;20.980;2023-02-13T08:27:59;4.40;;;2.30;;
77326;SDS011;66399;52.322;20.980;2023-02-13T08:32:05;5.90;;;3.10;;
77326;SDS011;66399;52.322;20.980;2023-02-13T08:36:10;5.70;;;2.20;;
77326;SDS011;66399;52.322;20.980;2023-02-13T08:40:15;6.30;;;2.30;;
77326;SDS011;66399;52.322;20.980;2023-02-13T08:48:25;6.30;;;2.70;;
77326;SDS011;66399;52.322;20.980;2023-02-13T08:52:30;13.10;;;3.10;;
77326;SDS011;66399;52.322;20.980;2023-02-13T08:56:35;6.50;;;2.90;;
77326;SDS011;66399;52.322;20.980;2023-02-13T09:00:41;6.80;;;3.00;;
77326;SDS011;66399;52.322;20.980;2023-02-13T09:04:46;6.40;;;3.20;;
77326;SDS011;66399;52.322;20.980;2023-02-13T09:08:51;6.10;;;2.30;;
77326;SDS011;66399;52.322;20.980;2023-02-13T09:12:57;5.80;;;2.50;;
77326;SDS011;66399;52.322;20.980;2023-02-13T09:17:06;5.30;;;2.20;;
77326;SDS011;66399;52.322;20.980;2023-02-13T09:21:14;4.40;;;2.40;;
77326;SDS011;66399;52.322;20.980;2023-02-13T09:25:20;5.70;;;3.00;;
77326;SDS011;66399;52.322;20.980;2023-02-13T09:29:25;5.00;;;2.70;;
77326;SDS011;66399;52.322;20.980;2023-02-13T09:33:34;3.80;;;1.60;;
77326;SDS011;66399;52.322;20.980;2023-02-13T09:37:39;6.00;;;2.10;;
77326;SDS011;66399;52.322;20.980;2023-02-13T09:41:45;4.70;;;2.30;;
77326;SDS011;66399;52.322;20.980;2023-02-13T09:45:52;4.80;;;2.00;;
77326;SDS011;66399;52.322;20.980;2023-02-13T09:50:02;6.20;;;2.30;;
77326;SDS011;66399;52.322;20.980;2023-02-13T09:54:12;5.30;;;2.20;;
77326;SDS011;66399;52.322;20.980;2023-02-13T09:58:21;5.00;;;2.30;;
77326;SDS011;66399;52.322;20.980;2023-02-13T10:02:35;4.90;;;2.20;;
77326;SDS011;66399;52.322;20.980;2023-02-13T10:06:46;4.40;;;2.50;;
77326;SDS011;66399;52.322;20.980;2023-02-13T10:10:56;4.80;;;2.10;;
77326;SDS011;66399;52.322;20.980;2023-02-13T10:15:07;4.40;;;2.60;;
77326;SDS011;66399;52.322;20.980;2023-02-13T10:19:22;5.00;;;2.90;;
77326;SDS011;66399;52.322;20.980;2023-02-13T10:23:32;4.90;;;2.40;;
77326;SDS011;66399;52.322;20.980;2023-02-13T10:27:39;4.40;;;2.30;;
77326;SDS011;66399;52.322;20.980;2023-02-13T10:31:45;4.00;;;2.40;;
77326;SDS011;66399;52.322;20.980;2023-02-13T10:35:56;6.70;;;3.10;;
77326;SDS011;66399;52.322;20.980;2023-02-13T10:40:08;6.70;;;3.10;;
77326;SDS011;66399;52.322;20.980;2023-02-13T10:44:21;5.20;;;2.60;;
77326;SDS011;66399;52.322;20.980;2023-02-13T10:48:33;7.50;;;3.20;;
77326;SDS011;66399;52.322;20.980;2023-02-13T10:52:44;6.90;;;2.90;;
77326;SDS011;66399;52.322;20.980;2023-02-13T10:56:54;5.80;;;2.70;;
77326;SDS011;66399;52.322;20.980;2023-02-13T11:01:05;6.40;;;2.60;;
77326;SDS011;66399;52.322;20.980;2023-02-13T11:05:14;5.00;;;2.30;;
77326;SDS011;66399;52.322;20.980;2023-02-13T11:09:21;5.90;;;2.60;;
77326;SDS011;66399;52.322;20.980;2023-02-13T11:13:28;3.60;;;2.00;;
77326;SDS011;66399;52.322;20.980;2023-02-13T11:17:35;4.90;;;2.60;;
77326;SDS011;66399;52.322;20.980;2023-02-13T11:21:41;6.90;;;2.80;;
77326;SDS011;66399;52.322;20.980;2023-02-13T11:25:54;7.30;;;4.00;;
77326;SDS011;66399;52.322;20.980;2023-02-13T11:30:02;5.30;;;3.10;;
77326;SDS011;66399;52.322;20.980;2023-02-13T11:34:24;9.40;;;3.10;;
77326;SDS011;66399;52.322;20.980;2023-02-13T11:38:30;5.60;;;2.90;;
77326;SDS011;66399;52.322;20.980;2023-02-13T11:42:35;4.70;;;2.60;;
77326;SDS011;66399;52.322;20.980;2023-02-13T11:46:45;4.10;;;2.30;;
77326;SDS011;66399;52.322;20.980;2023-02-13T11:50:51;5.20;;;2.70;;
77326;SDS011;66399;52.322;20.980;2023-02-13T11:55:00;5.00;;;2.90;;
77326;SDS011;66399;52.322;20.980;2023-02-13T11:59:11;6.10;;;2.90;;
77326;SDS011;66399;52.322;20.980;2023-02-13T12:03:24;5.10;;;2.90;;
77326;SDS011;66399;52.322;20.980;2023-02-13T12:07:30;6.40;;;3.10;;
77326;SDS011;66399;52.322;20.980;2023-02-13T12:11:38;5.40;;;2.40;;
77326;SDS011;66399;52.322;20.980;2023-02-13T12:15:44;5.40;;;2.90;;
77326;SDS011;66399;52.322;20.980;2023-02-13T12:19:52;5.70;;;3.10;;
77326;SDS011;66399;52.322;20.980;2023-02-13T12:24:00;5.50;;;2.90;;
77326;SDS011;66399;52.322;20.980;2023-02-13T12:28:11;5.40;;;2.50;;
77326;SDS011;66399;52.322;20.980;2023-02-13T12:32:18;5.50;;;2.60;;
77326;SDS011;66399;52.322;20.980;2023-02-13T12:36:25;7.20;;;3.00;;
77326;SDS011;66399;52.322;20.980;2023-02-13T12:40:40;6.20;;;3.00;;
77326;SDS011;66399;52.322;20.980;2023-02-13T12:45:01;5.30;;;2.50;;
77326;SDS011;66399;52.322;20.980;2023-02-13T12:49:13;5.10;;;2.70;;
77326;SDS011;66399;52.322;20.980;2023-02-13T12:53:28;5.00;;;2.80;;
77326;SDS011;66399;52.322;20.980;2023-02-13T12:57:41;5.60;;;2.10;;
77326;SDS011;66399;52.322;20.980;2023-02-13T13:01:56;4.90;;;2.70;;
77326;SDS011;66399;52.322;20.980;2023-02-13T13:06:15;6.30;;;3.00;;
77326;SDS011;66399;52.322;20.980;2023-02-13T13:10:34;5.00;;;2.60;;
77326;SDS011;66399;52.322;20.980;2023-02-13T13:14:43;6.00;;;3.10;;
77326;SDS011;66399;52.322;20.980;2023-02-13T13:18:54;4.60;;;2.30;;
77326;SDS011;66399;52.322;20.980;2023-02-13T13:23:01;5.80;;;2.60;;
77326;SDS011;66399;52.322;20.980;2023-02-13T13:27:12;4.30;;;2.00;;
77326;SDS011;66399;52.322;20.980;2023-02-13T13:31:20;4.20;;;1.80;;
77326;SDS011;66399;52.322;20.980;2023-02-13T13:35:27;4.10;;;2.00;;
77326;SDS011;66399;52.322;20.980;2023-02-13T13:39:35;6.00;;;1.90;;
77326;SDS011;66399;52.322;20.980;2023-02-13T13:43:47;4.60;;;2.20;;
77326;SDS011;66399;52.322;20.980;2023-02-13T13:48:03;4.30;;;1.60;;
77326;SDS011;66399;52.322;20.980;2023-02-13T13:52:22;4.10;;;1.80;;
77326;SDS011;66399;52.322;20.980;2023-02-13T13:56:28;3.50;;;1.60;;
77326;SDS011;66399;52.322;20.980;2023-02-13T14:05:20;4.40;;;1.60;;
77326;SDS011;66399;52.322;20.980;2023-02-13T14:09:38;3.70;;;1.80;;
77326;SDS011;66399;52.322;20.980;2023-02-13T14:13:43;5.00;;;1.80;;
77326;SDS011;66399;52.322;20.980;2023-02-13T14:26:30;3.80;;;1.70;;
77326;SDS011;66399;52.322;20.980;2023-02-13T14:30:37;3.80;;;1.90;;
77326;SDS011;66399;52.322;20.980;2023-02-13T14:34:47;3.80;;;1.80;;
77326;SDS011;66399;52.322;20.980;2023-02-13T14:38:56;3.90;;;1.90;;
77326;SDS011;66399;52.322;20.980;2023-02-13T14:43:13;5.50;;;2.00;;
77326;SDS011;66399;52.322;20.980;2023-02-13T14:47:21;6.00;;;2.10;;
77326;SDS011;66399;52.322;20.980;2023-02-13T14:51:32;4.90;;;1.90;;
77326;SDS011;66399;52.322;20.980;2023-02-13T14:55:39;5.20;;;2.20;;
77326;SDS011;66399;52.322;20.980;2023-02-13T14:59:46;3.70;;;2.10;;
77326;SDS011;66399;52.322;20.980;2023-02-13T15:03:53;4.00;;;1.60;;
77326;SDS011;66399;52.322;20.980;2023-02-13T15:08:04;3.50;;;1.80;;
77326;SDS011;66399;52.322;20.980;2023-02-13T15:12:26;6.30;;;2.30;;
77326;SDS011;66399;52.322;20.980;2023-02-13T15:16:32;3.90;;;1.80;;
77326;SDS011;66399;52.322;20.980;2023-02-13T15:20:38;5.00;;;2.40;;
77326;SDS011;66399;52.322;20.980;2023-02-13T15:24:46;6.60;;;2.50;;
77326;SDS011;66399;52.322;20.980;2023-02-13T15:29:02;9.80;;;3.00;;
77326;SDS011;66399;52.322;20.980;2023-02-13T15:33:16;6.40;;;2.90;;
77326;SDS011;66399;52.322;20.980;2023-02-13T15:37:23;6.50;;;2.50;;
77326;SDS011;66399;52.322;20.980;2023-02-13T15:41:30;4.60;;;2.50;;
77326;SDS011;66399;52.322;20.980;2023-02-13T15:45:37;3.50;;;2.00;;
77326;SDS011;66399;52.322;20.980;2023-02-13T15:49:47;7.00;;;2.50;;
77326;SDS011;66399;52.322;20.980;2023-02-13T15:53:54;5.20;;;2.70;;
77326;SDS011;66399;52.322;20.980;2023-02-13T15:58:00;7.70;;;3.00;;
77326;SDS011;66399;52.322;20.980;2023-02-13T16:02:09;4.20;;;2.30;;
77326;SDS011;66399;52.322;20.980;2023-02-13T16:06:16;7.30;;;2.40;;
77326;SDS011;66399;52.322;20.980;2023-02-13T16:10:27;7.60;;;3.00;;
77326;SDS011;66399;52.322;20.980;2023-02-13T16:14:35;4.10;;;1.70;;
77326;SDS011;66399;52.322;20.980;2023-02-13T16:18:42;5.90;;;3.10;;
77326;SDS011;66399;52.322;20.980;2023-02-13T16:22:48;5.80;;;2.40;;
77326;SDS011;66399;52.322;20.980;2023-02-13T16:26:54;3.70;;;1.90;;
77326;SDS011;66399;52.322;20.980;2023-02-13T16:35:21;4.00;;;1.90;;
77326;SDS011;66399;52.322;20.980;2023-02-13T16:39:31;6.20;;;2.60;;
77326;SDS011;66399;52.322;20.980;2023-02-13T16:43:41;6.60;;;3.10;;
77326;SDS011;66399;52.322;20.980;2023-02-13T16:47:47;6.40;;;2.00;;
77326;SDS011;66399;52.322;20.980;2023-02-13T16:55:57;6.10;;;2.50;;
77326;SDS011;66399;52.322;20.980;2023-02-13T17:00:06;7.00;;;2.70;;
77326;SDS011;66399;52.322;20.980;2023-02-13T17:04:14;6.40;;;2.60;;
77326;SDS011;66399;52.322;20.980;2023-02-13T17:08:23;11.90;;;3.70;;
77326;SDS011;66399;52.322;20.980;2023-02-13T17:12:29;8.10;;;3.10;;
77326;SDS011;66399;52.322;20.980;2023-02-13T17:16:35;4.60;;;2.10;;
77326;SDS011;66399;52.322;20.980;2023-02-13T17:20:41;7.40;;;2.60;;
77326;SDS011;66399;52.322;20.980;2023-02-13T17:24:47;7.80;;;2.60;;
77326;SDS011;66399;52.322;20.980;2023-02-13T17:28:53;7.80;;;3.10;;
77326;SDS011;66399;52.322;20.980;2023-02-13T17:32:58;6.10;;;2.70;;
77326;SDS011;66399;52.322;20.980;2023-02-13T17:37:07;4.30;;;1.90;;
77326;SDS011;66399;52.322;20.980;2023-02-13T17:41:18;4.90;;;2.10;;
77326;SDS011;66399;52.322;20.980;2023-02-13T17:45:24;5.40;;;2.10;;
77326;SDS011;66399;52.322;20.980;2023-02-13T17:49:30;7.10;;;2.40;;
77326;SDS011;66399;52.322;20.980;2023-02-13T17:53:35;6.00;;;2.10;;
77326;SDS011;66399;52.322;20.980;2023-02-13T17:57:41;5.00;;;2.20;;
77326;SDS011;66399;52.322;20.980;2023-02-13T18:01:46;6.50;;;2.50;;
77326;SDS011;66399;52.322;20.980;2023-02-13T18:05:52;5.90;;;2.50;;
77326;SDS011;66399;52.322;20.980;2023-02-13T18:09:57;6.10;;;2.50;;
77326;SDS011;66399;52.322;20.980;2023-02-13T18:14:03;5.90;;;2.30;;
77326;SDS011;66399;52.322;20.980;2023-02-13T18:18:08;6.80;;;2.40;;
77326;SDS011;66399;52.322;20.980;2023-02-13T18:26:17;6.20;;;2.50;;
77326;SDS011;66399;52.322;20.980;2023-02-13T18:30:23;6.10;;;2.30;;
77326;SDS011;66399;52.322;20.980;2023-02-13T18:34:29;6.70;;;2.80;;
77326;SDS011;66399;52.322;20.980;2023-02-13T18:38:35;9.50;;;3.30;;
77326;SDS011;66399;52.322;20.980;2023-02-13T18:42:40;6.30;;;2.70;;
77326;SDS011;66399;52.322;20.980;2023-02-13T18:46:45;9.30;;;4.00;;
77326;SDS011;66399;52.322;20.980;2023-02-13T18:50:50;8.40;;;2.80;;
77326;SDS011;66399;52.322;20.980;2023-02-13T18:54:56;5.70;;;2.80;;
77326;SDS011;66399;52.322;20.980;2023-02-13T18:59:01;7.30;;;2.90;;
77326;SDS011;66399;52.322;20.980;2023-02-13T19:03:07;9.50;;;3.70;;
77326;SDS011;66399;52.322;20.980;2023-02-13T19:07:12;7.00;;;3.20;;
77326;SDS011;66399;52.322;20.980;2023-02-13T19:11:18;6.00;;;3.40;;
77326;SDS011;66399;52.322;20.980;2023-02-13T19:15:26;5.90;;;2.40;;
77326;SDS011;66399;52.322;20.980;2023-02-13T19:19:31;5.90;;;2.90;;
77326;SDS011;66399;52.322;20.980;2023-02-13T19:23:37;6.50;;;3.00;;
77326;SDS011;66399;52.322;20.980;2023-02-13T19:27:42;8.60;;;3.10;;
77326;SDS011;66399;52.322;20.980;2023-02-13T19:31:48;6.90;;;2.60;;
77326;SDS011;66399;52.322;20.980;2023-02-13T19:35:57;6.80;;;3.70;;
77326;SDS011;66399;52.322;20.980;2023-02-13T19:40:02;7.90;;;3.50;;
77326;SDS011;66399;52.322;20.980;2023-02-13T19:44:08;7.50;;;2.80;;
77326;SDS011;66399;52.322;20.980;2023-02-13T19:48:14;5.00;;;2.50;;
77326;SDS011;66399;52.322;20.980;2023-02-13T19:52:19;5.70;;;2.20;;
77326;SDS011;66399;52.322;20.980;2023-02-13T19:56:25;7.50;;;3.00;;
77326;SDS011;66399;52.322;20.980;2023-02-13T20:00:31;5.50;;;2.80;;
77326;SDS011;66399;52.322;20.980;2023-02-13T20:04:36;5.90;;;2.50;;
77326;SDS011;66399;52.322;20.980;2023-02-13T20:08:43;6.40;;;2.70;;
77326;SDS011;66399;52.322;20.980;2023-02-13T20:12:48;7.80;;;3.10;;
77326;SDS011;66399;52.322;20.980;2023-02-13T20:16:57;5.80;;;2.70;;
77326;SDS011;66399;52.322;20.980;2023-02-13T20:21:04;4.80;;;2.00;;
77326;SDS011;66399;52.322;20.980;2023-02-13T20:25:10;10.30;;;3.00;;
77326;SDS011;66399;52.322;20.980;2023-02-13T20:29:15;7.00;;;2.10;;
77326;SDS011;66399;52.322;20.980;2023-02-13T20:33:21;5.50;;;2.60;;
77326;SDS011;66399;52.322;20.980;2023-02-13T20:37:26;7.40;;;2.60;;
77326;SDS011;66399;52.322;20.980;2023-02-13T20:41:32;7.20;;;3.50;;
77326;SDS011;66399;52.322;20.980;2023-02-13T20:45:38;5.40;;;2.50;;
77326;SDS011;66399;52.322;20.980;2023-02-13T20:49:43;5.20;;;2.70;;
77326;SDS011;66399;52.322;20.980;2023-02-13T20:53:48;6.70;;;2.50;;
77326;SDS011;66399;52.322;20.980;2023-02-13T20:57:54;6.40;;;2.80;;
77326;SDS011;66399;52.322;20.980;2023-02-13T21:01:59;6.10;;;2.40;;
77326;SDS011;66399;52.322;20.980;2023-02-13T21:06:05;10.00;;;3.10;;
77326;SDS011;66399;52.322;20.980;2023-02-13T21:10:11;6.90;;;2.60;;
77326;SDS011;66399;52.322;20.980;2023-02-13T21:14:16;8.00;;;3.20;;
77326;SDS011;66399;52.322;20.980;2023-02-13T21:18:22;7.10;;;2.80;;
77326;SDS011;66399;52.322;20.980;2023-02-13T21:22:27;8.30;;;2.30;;
77326;SDS011;66399;52.322;20.980;2023-02-13T21:26:34;6.60;;;3.30;;
77326;SDS011;66399;52.322;20.980;2023-02-13T21:30:39;5.60;;;2.40;;
77326;SDS011;66399;52.322;20.980;2023-02-13T21:34:46;5.00;;;2.70;;
77326;SDS011;66399;52.322;20.980;2023-02-13T21:38:51;9.20;;;3.40;;
77326;SDS011;66399;52.322;20.980;2023-02-13T21:42:56;6.80;;;2.60;;
77326;SDS011;66399;52.322;20.980;2023-02-13T21:47:02;6.00;;;2.70;;
77326;SDS011;66399;52.322;20.980;2023-02-13T21:51:10;4.60;;;2.60;;
77326;SDS011;66399;52.322;20.980;2023-02-13T21:55:16;4.40;;;2.50;;
77326;SDS011;66399;52.322;20.980;2023-02-13T21:59:21;6.40;;;2.80;;
77326;SDS011;66399;52.322;20.980;2023-02-13T22:03:27;6.60;;;2.40;;
77326;SDS011;66399;52.322;20.980;2023-02-13T22:07:32;5.90;;;2.80;;
77326;SDS011;66399;52.322;20.980;2023-02-13T22:11:58;5.50;;;2.60;;
77326;SDS011;66399;52.322;20.980;2023-02-13T22:16:06;5.50;;;2.60;;
77326;SDS011;66399;52.322;20.980;2023-02-13T22:20:12;4.80;;;2.20;;
77326;SDS011;66399;52.322;20.980;2023-02-13T22:24:17;2.80;;;1.50;;
77326;SDS011;66399;52.322;20.980;2023-02-13T22:28:22;6.60;;;2.80;;
77326;SDS011;66399;52.322;20.980;2023-02-13T22:32:28;8.20;;;3.00;;
77326;SDS011;66399;52.322;20.980;2023-02-13T22:36:34;5.00;;;2.00;;
77326;SDS011;66399;52.322;20.980;2023-02-13T22:40:42;4.00;;;1.60;;
77326;SDS011;66399;52.322;20.980;2023-02-13T22:44:47;5.30;;;2.40;;
77326;SDS011;66399;52.322;20.980;2023-02-13T22:48:53;7.40;;;2.40;;
77326;SDS011;66399;52.322;20.980;2023-02-13T22:52:58;5.30;;;2.30;;
77326;SDS011;66399;52.322;20.980;2023-02-13T22:57:04;5.70;;;2.70;;
77326;SDS011;66399;52.322;20.980;2023-02-13T23:01:10;5.70;;;1.90;;
77326;SDS011;66399;52.322;20.980;2023-02-13T23:05:16;6.20;;;2.50;;
77326;SDS011;66399;52.322;20.980;2023-02-13T23:09:22;6.40;;;2.70;;
77326;SDS011;66399;52.322;20.980;2023-02-13T23:13:27;6.00;;;2.70;;
77326;SDS011;66399;52.322;20.980;2023-02-13T23:17:32;8.00;;;3.20;;
77326;SDS011;66399;52.322;20.980;2023-02-13T23:21:55;7.30;;;3.30;;
77326;SDS011;66399;52.322;20.980;2023-02-13T23:26:03;6.30;;;2.40;;
77326;SDS011;66399;52.322;20.980;2023-02-13T23:30:10;6.20;;;2.80;;
77326;SDS011;66399;52.322;20.980;2023-02-13T23:34:16;4.10;;;2.20;;
77326;SDS011;66399;52.322;20.980;2023-02-13T23:38:22;4.60;;;2.50;;
77326;SDS011;66399;52.322;20.980;2023-02-13T23:46:31;6.70;;;2.10;;
77326;SDS011;66399;52.322;20.980;2023-02-13T23:50:36;6.90;;;2.90;;
77326;SDS011;66399;52.322;20.980;2023-02-13T23:54:42;6.20;;;2.80;;
77326;SDS011;66399;52.322;20.980;2023-02-13T23:58:49;5.80;;;2.30;;
